createdAt,value
2018-03-04T00:01:43.896Z,77.10
2018-03-04T00:04:11.387Z,77.20
2018-03-04T00:06:39.286Z,77.30
2018-03-04T00:09:06.791Z,77.30
2018-03-04T00:11:34.279Z,77.40
2018-03-04T00:14:02.173Z,77.60
2018-03-04T00:16:29.670Z,77.60
2018-03-04T00:18:57.171Z,77.70
2018-03-04T00:21:25.092Z,77.80
2018-03-04T00:23:52.581Z,77.80
2018-03-04T00:26:20.505Z,78.10
2018-03-04T00:28:48.007Z,78.10
2018-03-04T00:31:15.512Z,78.10
2018-03-04T00:33:43.007Z,78.30
2018-03-04T00:36:10.910Z,78.40
2018-03-04T00:38:38.442Z,78.40
2018-03-04T00:41:06.333Z,78.60
2018-03-04T00:43:33.844Z,78.60
2018-03-04T00:46:01.348Z,78.60
2018-03-04T00:48:28.857Z,78.70
2018-03-04T00:50:56.347Z,78.80
2018-03-04T00:53:23.883Z,78.90
2018-03-04T00:55:51.371Z,79.00
2018-03-04T00:58:18.873Z,79.10
2018-03-04T01:00:46.396Z,79.20
2018-03-04T01:03:13.890Z,79.20
2018-03-04T01:05:41.399Z,79.30
2018-03-04T01:08:08.887Z,79.60
2018-03-04T01:10:36.390Z,79.60
2018-03-04T01:13:04.291Z,79.70
2018-03-04T01:15:31.786Z,79.70
2018-03-04T01:17:59.287Z,79.80
2018-03-04T01:20:26.799Z,79.70
2018-03-04T01:22:54.294Z,79.90
2018-03-04T01:25:22.191Z,80.00
2018-03-04T01:27:49.692Z,80.10
2018-03-04T01:30:17.182Z,80.00
2018-03-04T01:32:44.680Z,80.00
2018-03-04T01:35:12.202Z,80.00
2018-03-04T01:37:39.690Z,80.10
2018-03-04T01:40:07.183Z,80.00
2018-03-04T01:42:34.724Z,80.10
2018-03-04T01:45:02.259Z,80.10
2018-03-04T01:47:29.761Z,80.30
2018-03-04T01:49:57.271Z,80.10
2018-03-04T01:52:24.790Z,80.10
2018-03-04T01:54:52.685Z,80.30
2018-03-04T01:57:20.192Z,80.10
2018-03-04T01:59:47.688Z,80.10
2018-03-04T02:02:15.211Z,80.30
2018-03-04T02:04:42.755Z,80.30
2018-03-04T02:07:10.247Z,80.10
2018-03-04T02:09:38.164Z,80.20
2018-03-04T02:12:05.652Z,80.20
2018-03-04T02:14:33.175Z,80.20
2018-03-04T02:17:00.672Z,80.20
2018-03-04T02:19:28.583Z,80.20
2018-03-04T02:21:56.083Z,80.20
2018-03-04T02:24:23.588Z,80.20
2018-03-04T02:26:51.082Z,80.20
2018-03-04T02:29:18.596Z,80.30
2018-03-04T02:31:46.092Z,80.20
2018-03-04T02:34:13.587Z,80.30
2018-03-04T02:36:41.527Z,80.20
2018-03-04T02:39:09.063Z,80.30
2018-03-04T02:41:36.552Z,80.30
2018-03-04T02:44:04.071Z,80.30
2018-03-04T02:46:31.579Z,80.30
2018-03-04T02:48:59.515Z,80.40
2018-03-04T02:51:27.046Z,80.40
2018-03-04T02:53:54.533Z,80.40
2018-03-04T02:56:22.052Z,80.40
2018-03-04T02:58:49.547Z,80.50
2018-03-04T03:01:17.037Z,80.50
2018-03-04T03:03:44.934Z,80.60
2018-03-04T03:06:12.425Z,80.60
2018-03-04T03:08:39.936Z,80.60
2018-03-04T03:11:08.367Z,80.70
2018-03-04T03:13:37.231Z,80.70
2018-03-04T03:16:06.637Z,80.80
2018-03-04T03:18:36.372Z,80.80
2018-03-04T03:21:05.600Z,80.80
2018-03-04T03:23:34.218Z,80.80
2018-03-04T03:26:03.292Z,80.80
2018-03-04T03:28:32.126Z,80.90
2018-03-04T03:31:01.087Z,81.10
2018-03-04T03:33:29.938Z,81.10
2018-03-04T03:35:58.909Z,81.30
2018-03-04T03:38:28.264Z,81.40
2018-03-04T03:40:57.216Z,81.40
2018-03-04T03:43:26.087Z,81.40
2018-03-04T03:45:55.512Z,81.40
2018-03-04T03:48:24.544Z,81.50
2018-03-04T03:50:53.392Z,81.50
2018-03-04T03:53:22.158Z,81.60
2018-03-04T03:55:50.919Z,81.70
2018-03-04T03:58:19.731Z,81.80
2018-03-04T04:00:48.877Z,82.00
2018-03-04T04:03:17.786Z,82.00
2018-03-04T04:05:46.937Z,82.20
2018-03-04T04:08:16.048Z,82.30
2018-03-04T04:10:44.661Z,82.30
2018-03-04T04:13:13.457Z,82.30
2018-03-04T04:15:42.066Z,82.40
2018-03-04T04:18:10.706Z,82.40
2018-03-04T04:20:40.384Z,82.20
2018-03-04T04:23:08.999Z,82.20
2018-03-04T04:25:37.846Z,82.40
2018-03-04T04:28:06.944Z,82.50
2018-03-04T04:30:36.280Z,82.50
2018-03-04T04:33:05.122Z,82.50
2018-03-04T04:35:33.992Z,82.50
2018-03-04T04:38:03.005Z,82.50
2018-03-04T04:40:31.775Z,82.60
2018-03-04T04:43:00.558Z,82.50
2018-03-04T04:45:29.385Z,82.60
2018-03-04T04:47:58.053Z,82.60
2018-03-04T04:50:27.347Z,82.60
2018-03-04T04:52:56.391Z,82.70
2018-03-04T04:55:25.228Z,82.70
2018-03-04T04:57:54.159Z,82.60
2018-03-04T05:00:23.070Z,82.60
2018-03-04T05:02:51.921Z,82.70
2018-03-04T05:05:20.687Z,82.60
2018-03-04T05:07:49.950Z,82.60
2018-03-04T05:10:18.824Z,82.60
2018-03-04T05:12:47.857Z,82.50
2018-03-04T05:15:16.903Z,82.50
2018-03-04T05:17:45.772Z,82.50
2018-03-04T05:20:14.866Z,82.50
2018-03-04T05:22:43.893Z,82.50
2018-03-04T05:25:13.010Z,82.50
2018-03-04T05:27:41.727Z,82.50
2018-03-04T05:30:11.816Z,82.50
2018-03-04T05:32:40.267Z,82.40
2018-03-04T05:35:09.501Z,82.40
2018-03-04T05:37:39.365Z,82.40
2018-03-04T05:40:08.734Z,82.20
2018-03-04T05:42:37.609Z,82.20
2018-03-04T05:45:06.951Z,82.10
2018-03-04T05:47:34.559Z,82.10
2018-03-04T05:50:02.076Z,82.10
2018-03-04T05:52:29.577Z,82.00
2018-03-04T05:54:57.060Z,82.10
2018-03-04T05:57:24.559Z,82.00
2018-03-04T05:59:52.054Z,82.10
2018-03-04T06:02:19.571Z,82.00
2018-03-04T06:04:47.056Z,82.00
2018-03-04T06:07:14.562Z,82.00
2018-03-04T06:09:42.464Z,82.40
2018-03-04T06:12:09.976Z,82.40
2018-03-04T06:14:37.890Z,82.50
2018-03-04T06:17:05.379Z,82.50
2018-03-04T06:19:32.891Z,82.70
2018-03-04T06:22:00.430Z,82.70
2018-03-04T06:24:27.919Z,82.90
2018-03-04T06:26:55.412Z,82.80
2018-03-04T06:29:22.908Z,82.70
2018-03-04T06:31:50.410Z,82.70
2018-03-04T06:34:17.955Z,82.70
2018-03-04T06:36:45.449Z,82.70
2018-03-04T06:39:12.955Z,82.80
2018-03-04T06:41:40.489Z,82.70
2018-03-04T06:44:07.987Z,82.50
2018-03-04T06:46:35.548Z,82.50
2018-03-04T06:49:03.040Z,82.30
2018-03-04T06:51:30.946Z,82.30
2018-03-04T06:53:58.447Z,82.30
2018-03-04T06:56:25.958Z,82.20
2018-03-04T06:58:53.456Z,82.20
2018-03-04T07:01:20.960Z,82.10
2018-03-04T07:03:48.477Z,82.00
2018-03-04T07:06:16.138Z,82.00
2018-03-04T07:08:43.626Z,82.10
2018-03-04T07:11:11.526Z,82.00
2018-03-04T07:13:39.015Z,82.00
2018-03-04T07:16:06.527Z,82.00
2018-03-04T07:18:34.020Z,81.80
2018-03-04T07:21:01.524Z,82.00
2018-03-04T07:23:29.040Z,81.80
2018-03-04T07:25:56.568Z,82.00
2018-03-04T07:28:24.066Z,82.00
2018-03-04T07:30:51.561Z,81.90
2018-03-04T07:33:19.093Z,81.90
2018-03-04T07:35:47.103Z,81.80
2018-03-04T07:38:14.619Z,81.80
2018-03-04T07:40:42.145Z,81.80
2018-03-04T07:43:09.640Z,81.70
2018-03-04T07:45:37.567Z,81.40
2018-03-04T07:48:05.050Z,81.40
2018-03-04T07:50:32.595Z,81.40
2018-03-04T07:53:00.106Z,81.30
2018-03-04T07:55:27.669Z,81.20
2018-03-04T07:57:55.163Z,81.10
2018-03-04T08:00:22.650Z,81.00
2018-03-04T08:02:51.044Z,80.80
2018-03-04T08:05:18.926Z,80.50
2018-03-04T08:07:46.425Z,80.50
2018-03-04T08:10:13.938Z,80.10
2018-03-04T08:12:41.454Z,80.10
2018-03-04T08:15:08.982Z,80.00
2018-03-04T08:17:36.468Z,79.90
2018-03-04T08:20:03.976Z,79.80
2018-03-04T08:22:32.360Z,79.90
2018-03-04T08:25:11.646Z,79.80
2018-03-04T08:27:51.747Z,79.60
2018-03-04T08:30:19.236Z,79.60
2018-03-04T08:32:46.735Z,79.50
2018-03-04T08:35:14.231Z,79.20
2018-03-04T08:37:41.746Z,79.10
2018-03-04T08:40:09.246Z,78.80
2018-03-04T08:42:36.740Z,78.70
2018-03-04T08:45:04.651Z,78.70
2018-03-04T08:47:32.150Z,78.70
2018-03-04T08:49:59.664Z,78.60
2018-03-04T08:52:27.210Z,78.60
2018-03-04T08:54:54.723Z,78.60
2018-03-04T08:57:22.219Z,78.60
2018-03-04T08:59:49.723Z,78.60
2018-03-04T09:02:17.268Z,78.50
2018-03-04T09:04:45.110Z,78.50
2018-03-04T09:07:12.654Z,78.60
2018-03-04T09:09:40.147Z,78.50
2018-03-04T09:12:08.803Z,78.70
2018-03-04T09:14:36.315Z,78.80
2018-03-04T09:17:03.797Z,78.70
2018-03-04T09:19:31.695Z,78.60
2018-03-04T09:21:59.199Z,78.60
2018-03-04T09:24:26.711Z,78.60
2018-03-04T09:26:54.215Z,78.70
2018-03-04T09:29:21.700Z,78.60
2018-03-04T09:31:49.592Z,78.70
2018-03-04T09:34:17.150Z,78.70
2018-03-04T09:36:44.668Z,78.70
2018-03-04T09:39:12.556Z,78.70
2018-03-04T09:41:40.055Z,78.70
2018-03-04T09:44:07.557Z,78.50
2018-03-04T09:46:35.441Z,78.50
2018-03-04T09:49:02.940Z,78.50
2018-03-04T09:51:30.428Z,78.40
2018-03-04T09:53:58.437Z,78.10
2018-03-04T09:56:25.918Z,78.10
2018-03-04T09:58:53.436Z,78.00
2018-03-04T10:01:20.934Z,78.10
2018-03-04T10:03:48.428Z,78.20
2018-03-04T10:06:16.422Z,78.10
2018-03-04T10:08:43.921Z,78.10
2018-03-04T10:11:11.426Z,78.10
2018-03-04T10:13:39.307Z,77.90
2018-03-04T10:16:06.815Z,77.90
2018-03-04T10:18:34.322Z,77.90
2018-03-04T10:21:01.827Z,77.90
2018-03-04T10:23:29.366Z,77.60
2018-03-04T10:25:56.874Z,77.70
2018-03-04T10:28:24.368Z,77.50
2018-03-04T10:30:51.959Z,77.10
2018-03-04T10:33:19.464Z,76.70
2018-03-04T10:35:46.979Z,76.40
2018-03-04T10:38:14.492Z,76.20
2018-03-04T10:40:41.990Z,75.90
2018-03-04T10:43:09.902Z,75.90
2018-03-04T10:45:37.395Z,75.90
2018-03-04T10:48:04.912Z,75.10
2018-03-04T10:50:32.403Z,74.10
2018-03-04T10:52:59.898Z,73.20
2018-03-04T10:55:27.806Z,74.00
2018-03-04T10:57:55.298Z,74.00
2018-03-04T11:00:24.635Z,73.20
2018-03-04T11:02:52.539Z,71.40
2018-03-04T11:05:20.027Z,71.40
2018-03-04T11:07:47.531Z,70.10
2018-03-04T11:10:15.043Z,69.00
2018-03-04T11:12:42.541Z,68.30
2018-03-04T11:15:10.060Z,68.20
2018-03-04T11:17:37.555Z,67.30
2018-03-04T11:20:05.047Z,67.50
2018-03-04T11:22:32.539Z,67.50
2018-03-04T11:25:00.040Z,66.40
2018-03-04T11:27:27.547Z,66.50
2018-03-04T11:29:55.091Z,66.80
2018-03-04T11:32:22.583Z,66.50
2018-03-04T11:34:50.459Z,66.00
2018-03-04T11:37:18.351Z,65.40
2018-03-04T11:39:45.875Z,65.40
2018-03-04T11:42:13.763Z,65.10
2018-03-04T11:44:41.255Z,65.10
2018-03-04T11:47:08.752Z,65.80
2018-03-04T11:49:36.651Z,66.20
2018-03-04T11:52:04.539Z,66.20
2018-03-04T11:54:32.046Z,66.20
2018-03-04T11:56:59.561Z,65.90
2018-03-04T11:59:27.054Z,65.60
2018-03-04T12:01:54.956Z,66.20
2018-03-04T12:04:22.489Z,66.20
2018-03-04T12:06:50.401Z,66.50
2018-03-04T12:09:17.941Z,66.50
2018-03-04T12:11:45.440Z,65.80
2018-03-04T12:14:12.928Z,65.30
2018-03-04T12:16:40.424Z,65.60
2018-03-04T12:19:08.016Z,65.80
2018-03-04T12:21:35.517Z,65.00
2018-03-04T12:24:03.010Z,64.80
2018-03-04T12:26:30.558Z,63.80
2018-03-04T12:28:58.112Z,63.30
2018-03-04T12:31:25.610Z,62.40
2018-03-04T12:33:53.111Z,61.90
2018-03-04T12:36:20.613Z,62.30
2018-03-04T12:38:48.113Z,62.40
2018-03-04T12:41:16.048Z,62.20
2018-03-04T12:43:43.595Z,62.20
2018-03-04T12:46:11.095Z,62.00
2018-03-04T12:48:38.979Z,61.50
2018-03-04T12:51:07.379Z,61.40
2018-03-04T12:53:34.891Z,60.40
2018-03-04T12:56:02.860Z,59.70
2018-03-04T12:58:30.749Z,59.50
2018-03-04T13:00:58.287Z,59.50
2018-03-04T13:03:26.180Z,59.30
2018-03-04T13:05:53.685Z,59.30
2018-03-04T13:08:21.200Z,59.80
2018-03-04T13:10:48.751Z,59.90
2018-03-04T13:13:16.288Z,59.90
2018-03-04T13:15:44.200Z,59.70
2018-03-04T13:18:11.696Z,59.70
2018-03-04T13:20:39.196Z,60.00
2018-03-04T13:23:06.714Z,59.60
2018-03-04T13:25:34.615Z,59.20
2018-03-04T13:28:02.128Z,59.20
2018-03-04T13:30:29.618Z,59.50
2018-03-04T13:32:57.123Z,60.40
2018-03-04T13:35:24.653Z,60.30
2018-03-04T13:37:52.155Z,60.50
2018-03-04T13:40:20.085Z,59.90
2018-03-04T13:42:47.603Z,59.90
2018-03-04T13:45:15.483Z,59.00
2018-03-04T13:47:42.994Z,59.00
2018-03-04T13:50:10.498Z,59.00
2018-03-04T13:52:38.019Z,59.20
2018-03-04T13:55:05.542Z,59.50
2018-03-04T13:57:33.058Z,59.30
2018-03-04T14:00:00.944Z,59.30
2018-03-04T14:02:28.452Z,59.30
2018-03-04T14:04:55.937Z,59.50
2018-03-04T14:07:23.831Z,59.10
2018-03-04T14:09:51.339Z,59.10
2018-03-04T14:12:18.827Z,58.90
2018-03-04T14:14:46.332Z,58.60
2018-03-04T14:17:13.823Z,58.20
2018-03-04T14:19:41.810Z,58.70
2018-03-04T14:22:09.315Z,58.70
2018-03-04T14:24:36.803Z,58.90
2018-03-04T14:27:04.291Z,58.90
2018-03-04T14:29:31.794Z,58.70
2018-03-04T14:31:59.279Z,59.00
2018-03-04T14:34:27.163Z,60.00
2018-03-04T14:36:55.075Z,60.40
2018-03-04T14:39:22.629Z,60.40
2018-03-04T14:41:50.139Z,60.90
2018-03-04T14:44:18.101Z,61.00
2018-03-04T14:46:46.014Z,61.10
2018-03-04T14:49:13.514Z,61.10
2018-03-04T14:51:41.495Z,60.90
2018-03-04T14:54:09.414Z,61.40
2018-03-04T14:56:36.959Z,61.40
2018-03-04T14:59:04.467Z,62.20
2018-03-04T15:01:31.948Z,62.70
2018-03-04T15:03:59.469Z,62.90
2018-03-04T15:06:26.968Z,63.10
2018-03-04T15:08:54.470Z,63.20
2018-03-04T15:11:21.987Z,63.30
2018-03-04T15:13:49.494Z,64.00
2018-03-04T15:16:16.997Z,64.10
2018-03-04T15:18:44.523Z,64.30
2018-03-04T15:21:12.019Z,64.70
2018-03-04T15:23:39.512Z,65.40
2018-03-04T15:26:07.015Z,66.30
2018-03-04T15:28:34.920Z,67.00
2018-03-04T15:31:02.420Z,67.00
2018-03-04T15:33:29.912Z,67.30
2018-03-04T15:35:57.407Z,67.30
2018-03-04T15:38:25.746Z,67.60
2018-03-04T15:40:53.298Z,68.00
2018-03-04T15:43:21.588Z,68.90
2018-03-04T15:45:50.071Z,69.50
2018-03-04T15:48:17.552Z,70.30
2018-03-04T15:50:45.047Z,71.50
2018-03-04T15:53:12.940Z,73.70
2018-03-04T15:55:40.428Z,73.70
2018-03-04T15:58:07.943Z,74.10
2018-03-04T16:00:35.459Z,74.80
2018-03-04T16:03:03.085Z,75.30
2018-03-04T16:05:30.595Z,75.60
2018-03-04T16:07:58.478Z,76.50
2018-03-04T16:10:26.372Z,77.00
2018-03-04T16:12:53.880Z,77.00
2018-03-04T16:15:21.381Z,77.40
2018-03-04T16:17:48.858Z,77.70
2018-03-04T16:20:16.360Z,78.20
2018-03-04T16:22:44.248Z,78.90
2018-03-04T16:25:11.774Z,78.90
2018-03-04T16:27:39.695Z,79.50
2018-03-04T16:30:07.186Z,79.50
2018-03-04T16:32:34.685Z,80.10
2018-03-04T16:35:02.191Z,80.20
2018-03-04T16:37:29.688Z,80.70
2018-03-04T16:39:57.587Z,81.10
2018-03-04T16:42:25.139Z,81.10
2018-03-04T16:44:52.623Z,81.40
2018-03-04T16:47:20.992Z,81.40
2018-03-04T16:49:48.639Z,81.90
2018-03-04T16:52:16.359Z,82.20
2018-03-04T16:54:43.847Z,82.40
2018-03-04T16:57:11.351Z,82.70
2018-03-04T16:59:38.854Z,82.90
2018-03-04T17:02:06.353Z,83.60
2018-03-04T17:04:33.881Z,84.00
2018-03-04T17:07:01.487Z,84.30
2018-03-04T17:09:28.978Z,84.50
2018-03-04T17:11:56.489Z,84.60
2018-03-04T17:14:23.983Z,84.70
2018-03-04T17:16:51.489Z,85.00
2018-03-04T17:19:18.983Z,85.10
2018-03-04T17:21:46.475Z,85.50
2018-03-04T17:24:14.019Z,85.80
2018-03-04T17:26:41.578Z,86.10
2018-03-04T17:29:09.141Z,86.30
2018-03-04T17:31:36.680Z,86.40
2018-03-04T17:34:04.595Z,86.70
2018-03-04T17:36:32.129Z,86.70
2018-03-04T17:38:59.631Z,87.00
2018-03-04T17:41:27.159Z,87.20
2018-03-04T17:43:54.687Z,87.40
2018-03-04T17:46:22.656Z,87.70
2018-03-04T17:48:50.580Z,87.80
2018-03-04T17:51:18.091Z,87.80
2018-03-04T17:53:45.678Z,87.80
2018-03-04T17:56:13.199Z,88.00
2018-03-04T17:58:40.710Z,88.30
2018-03-04T18:01:08.268Z,88.50
2018-03-04T18:03:35.788Z,88.30
2018-03-04T18:06:03.287Z,88.50
2018-03-04T18:08:30.808Z,88.80
2018-03-04T18:10:58.312Z,88.80
2018-03-04T18:13:25.888Z,88.70
2018-03-04T18:15:53.535Z,88.60
2018-03-04T18:18:21.037Z,89.10
2018-03-04T18:20:48.618Z,89.10
2018-03-04T18:23:16.519Z,89.20
2018-03-04T18:25:44.023Z,89.20
2018-03-04T18:28:11.535Z,89.30
2018-03-04T18:30:39.039Z,89.20
2018-03-04T18:33:06.582Z,89.30
2018-03-04T18:35:34.478Z,89.40
2018-03-04T18:38:01.982Z,89.40
2018-03-04T18:40:29.489Z,89.30
2018-03-04T18:42:56.995Z,89.40
2018-03-04T18:45:24.599Z,89.40
2018-03-04T18:47:52.102Z,89.60
2018-03-04T18:50:19.630Z,89.60
2018-03-04T18:52:47.138Z,89.80
2018-03-04T18:55:15.162Z,89.60
2018-03-04T18:57:42.757Z,89.60
2018-03-04T19:00:10.269Z,89.60
2018-03-04T19:02:37.788Z,89.60
2018-03-04T19:05:05.295Z,89.60
2018-03-04T19:07:32.856Z,89.60
2018-03-04T19:10:00.346Z,89.60
2018-03-04T19:12:27.899Z,89.70
2018-03-04T19:14:55.395Z,89.60
2018-03-04T19:17:22.917Z,89.60
2018-03-04T19:19:50.455Z,89.60
2018-03-04T19:22:17.959Z,89.50
2018-03-04T19:24:45.469Z,89.60
2018-03-04T19:27:12.965Z,89.70
2018-03-04T19:29:40.867Z,89.60
2018-03-04T19:32:08.374Z,89.60
2018-03-04T19:34:36.579Z,89.60
2018-03-04T19:37:04.097Z,89.40
2018-03-04T19:39:31.599Z,89.50
2018-03-04T19:41:59.157Z,89.30
2018-03-04T19:44:26.667Z,89.20
2018-03-04T19:46:54.172Z,89.00
2018-03-04T19:49:21.680Z,88.90
2018-03-04T19:51:49.192Z,88.70
2018-03-04T19:54:16.711Z,88.60
2018-03-04T19:56:44.619Z,88.40
2018-03-04T19:59:12.127Z,88.40
2018-03-04T20:01:40.139Z,88.30
2018-03-04T20:04:07.647Z,88.30
2018-03-04T20:06:35.179Z,88.20
2018-03-04T20:09:02.676Z,88.20
2018-03-04T20:11:30.207Z,88.10
2018-03-04T20:13:57.711Z,88.00
2018-03-04T20:16:25.629Z,88.00
2018-03-04T20:18:53.194Z,88.00
2018-03-04T20:21:20.701Z,88.00
2018-03-04T20:23:48.231Z,87.90
2018-03-04T20:26:16.150Z,87.70
2018-03-04T20:28:43.647Z,87.70
2018-03-04T20:31:11.143Z,88.00
2018-03-04T20:33:38.682Z,87.80
2018-03-04T20:36:06.577Z,88.20
2018-03-04T20:38:34.079Z,88.20
2018-03-04T20:41:01.611Z,88.30
2018-03-04T20:43:30.146Z,88.20
2018-03-04T20:45:58.054Z,88.20
2018-03-04T20:48:25.547Z,88.20
2018-03-04T20:50:53.064Z,88.30
2018-03-04T20:53:20.566Z,88.60
2018-03-04T20:55:48.061Z,88.60
2018-03-04T20:58:15.571Z,88.80
2018-03-04T21:00:43.071Z,89.00
2018-03-04T21:03:10.599Z,89.10
2018-03-04T21:05:38.119Z,88.80
2018-03-04T21:08:05.613Z,88.50
2018-03-04T21:10:33.124Z,88.10
2018-03-04T21:13:00.672Z,88.10
2018-03-04T21:15:28.207Z,88.00
2018-03-04T21:17:56.092Z,87.50
2018-03-04T21:20:23.622Z,87.50
2018-03-04T21:22:51.519Z,88.10
2018-03-04T21:25:19.026Z,88.10
2018-03-04T21:27:46.569Z,88.10
2018-03-04T21:30:14.907Z,88.20
2018-03-04T21:32:43.479Z,88.30
2018-03-04T21:35:11.008Z,88.40
2018-03-04T21:37:38.543Z,88.50
2018-03-04T21:40:06.065Z,88.90
2018-03-04T21:42:33.575Z,89.00
2018-03-04T21:45:01.075Z,89.10
2018-03-04T21:47:28.589Z,89.40
2018-03-04T21:49:56.096Z,89.60
2018-03-04T21:52:23.643Z,89.80
2018-03-04T21:54:51.159Z,89.90
2018-03-04T21:57:18.722Z,90.10
2018-03-04T21:59:46.244Z,90.00
2018-03-04T22:02:13.733Z,90.00
2018-03-04T22:04:41.237Z,90.10
2018-03-04T22:07:08.891Z,90.00
2018-03-04T22:09:36.408Z,90.20
2018-03-04T22:12:03.898Z,89.90
2018-03-04T22:14:31.830Z,90.10
2018-03-04T22:16:59.777Z,90.10
2018-03-04T22:19:27.323Z,90.10
2018-03-04T22:21:54.860Z,90.30
2018-03-04T22:26:56.279Z,90.90
2018-03-04T22:29:23.792Z,91.40
2018-03-04T22:31:51.316Z,91.60
2018-03-04T22:34:18.818Z,91.90
2018-03-04T22:36:46.319Z,91.90
2018-03-04T22:39:13.799Z,92.10
2018-03-04T22:41:41.744Z,92.20
2018-03-04T22:44:09.248Z,92.20
2018-03-04T22:46:36.736Z,92.00
2018-03-04T22:49:04.240Z,91.80
2018-03-04T22:51:32.123Z,91.50
2018-03-04T22:53:59.639Z,91.50
2018-03-04T22:56:27.228Z,91.00
2018-03-04T22:58:55.119Z,91.50
2018-03-04T23:01:22.619Z,91.50
2018-03-04T23:03:50.135Z,91.50
2018-03-04T23:06:17.684Z,91.40
2018-03-04T23:08:45.177Z,91.40
2018-03-04T23:11:13.493Z,91.50
2018-03-04T23:13:41.383Z,91.80
2018-03-04T23:16:08.927Z,91.80
2018-03-04T23:18:36.833Z,92.10
2018-03-04T23:21:04.381Z,92.10
2018-03-04T23:23:31.899Z,92.20
2018-03-04T23:25:59.795Z,92.20
2018-03-04T23:28:27.304Z,92.20
2018-03-04T23:30:54.796Z,91.30
2018-03-04T23:33:22.304Z,89.90
2018-03-04T23:35:49.821Z,89.40
2018-03-04T23:38:17.455Z,89.00
2018-03-04T23:40:45.341Z,88.70
2018-03-04T23:43:12.835Z,88.70
2018-03-04T23:45:40.338Z,87.80
2018-03-04T23:48:08.275Z,86.60
2018-03-04T23:50:35.775Z,86.60
2018-03-04T23:53:03.288Z,86.60
2018-03-04T23:55:30.818Z,86.40
2018-03-04T23:57:58.399Z,87.00
